<?xml version="1.0" encoding="UTF-8" standalone="no" ?>
<gpx xmlns="http://www.topografix.com/GPX/1/1" xmlns:xsi="http://www.w3.org/2001/XMLSchema-instance" xsi:schemaLocation="http://www.topografix.com/GPX/1/1 http://www.topografix.com/GPX/1/1/gpx.xsd" version="1.1" creator="VisuGPX - https://www.visugpx.com">
  <metadata>
    <name>veloballade du Lundi de Pentecôte - Aller</name>
    <desc><![CDATA[Cyclemeter Vélo (Route) 12 mai 2012 14:25:53]]></desc>
  </metadata>
  <trk>
    <name><![CDATA[Prevision Pentecote]]></name>
    <trkseg>
      <trkpt lat="50.68645" lon="3.115">
        <ele>35.8</ele>
        <time>2012-05-12T12:25:53Z</time>
      </trkpt>
      <trkpt lat="50.68655" lon="3.11498">
        <ele>35.8</ele>
        <time>2012-05-12T12:26:03Z</time>
      </trkpt>
      <trkpt lat="50.68656" lon="3.11528">
        <ele>35.8</ele>
        <time>2012-05-12T12:27:08Z</time>
      </trkpt>
      <trkpt lat="50.68607" lon="3.11537">
        <ele>35.8</ele>
        <time>2012-05-12T12:27:17Z</time>
      </trkpt>
      <trkpt lat="50.6856" lon="3.11559">
        <ele>35.8</ele>
        <time>2012-05-12T12:27:27Z</time>
      </trkpt>
      <trkpt lat="50.68523" lon="3.11609">
        <ele>35.8</ele>
        <time>2012-05-12T12:27:35Z</time>
      </trkpt>
      <trkpt lat="50.68489" lon="3.11664">
        <ele>35.8</ele>
        <time>2012-05-12T12:27:43Z</time>
      </trkpt>
      <trkpt lat="50.68444" lon="3.11731">
        <ele>29.4</ele>
        <time>2012-05-12T12:27:54Z</time>
      </trkpt>
      <trkpt lat="50.68412" lon="3.11783">
        <ele>24.8</ele>
        <time>2012-05-12T12:28:06Z</time>
      </trkpt>
      <trkpt lat="50.6838" lon="3.11834">
        <ele>24.8</ele>
        <time>2012-05-12T12:28:16Z</time>
      </trkpt>
      <trkpt lat="50.68353" lon="3.11877">
        <ele>24.8</ele>
        <time>2012-05-12T12:28:28Z</time>
      </trkpt>
      <trkpt lat="50.68346" lon="3.11879">
        <ele>24.8</ele>
        <time>2012-05-12T12:28:30Z</time>
      </trkpt>
      <trkpt lat="50.68344" lon="3.11874">
        <ele>24.8</ele>
        <time>2012-05-12T12:28:31Z</time>
      </trkpt>
      <trkpt lat="50.68301" lon="3.11822">
        <ele>13.8</ele>
        <time>2012-05-12T12:28:44Z</time>
      </trkpt>
      <trkpt lat="50.68266" lon="3.11774">
        <ele>13.8</ele>
        <time>2012-05-12T12:28:54Z</time>
      </trkpt>
      <trkpt lat="50.68221" lon="3.11718">
        <ele>13.8</ele>
        <time>2012-05-12T12:29:04Z</time>
      </trkpt>
      <trkpt lat="50.68182" lon="3.11669">
        <ele>13.8</ele>
        <time>2012-05-12T12:29:17Z</time>
      </trkpt>
      <trkpt lat="50.68139" lon="3.11612">
        <ele>13.8</ele>
        <time>2012-05-12T12:29:31Z</time>
      </trkpt>
      <trkpt lat="50.68105" lon="3.11566">
        <ele>13.8</ele>
        <time>2012-05-12T12:29:46Z</time>
      </trkpt>
      <trkpt lat="50.68069" lon="3.11519">
        <ele>13.8</ele>
        <time>2012-05-12T12:29:59Z</time>
      </trkpt>
      <trkpt lat="50.6802" lon="3.11463">
        <ele>13.8</ele>
        <time>2012-05-12T12:30:09Z</time>
      </trkpt>
      <trkpt lat="50.67994" lon="3.11373">
        <ele>13.8</ele>
        <time>2012-05-12T12:30:25Z</time>
      </trkpt>
      <trkpt lat="50.67994" lon="3.11373">
        <ele>13.8</ele>
        <time>2012-05-12T12:31:40Z</time>
      </trkpt>
      <trkpt lat="50.68003" lon="3.11331">
        <ele>13.8</ele>
        <time>2012-05-12T12:31:45Z</time>
      </trkpt>
      <trkpt lat="50.68047" lon="3.11315">
        <ele>13.8</ele>
        <time>2012-05-12T12:31:54Z</time>
      </trkpt>
      <trkpt lat="50.68066" lon="3.11321">
        <ele>13.8</ele>
        <time>2012-05-12T12:32:00Z</time>
      </trkpt>
      <trkpt lat="50.68118" lon="3.11297">
        <ele>13.8</ele>
        <time>2012-05-12T12:32:10Z</time>
      </trkpt>
      <trkpt lat="50.68141" lon="3.11296">
        <ele>13.8</ele>
        <time>2012-05-12T12:32:21Z</time>
      </trkpt>
      <trkpt lat="50.68148" lon="3.11269">
        <ele>13.8</ele>
        <time>2012-05-12T12:32:30Z</time>
      </trkpt>
      <trkpt lat="50.6815" lon="3.11182">
        <ele>13.8</ele>
        <time>2012-05-12T12:32:46Z</time>
      </trkpt>
      <trkpt lat="50.68149" lon="3.11118">
        <ele>13.8</ele>
        <time>2012-05-12T12:32:54Z</time>
      </trkpt>
      <trkpt lat="50.68118" lon="3.1106">
        <ele>12.8</ele>
        <time>2012-05-12T12:33:07Z</time>
      </trkpt>
      <trkpt lat="50.68094" lon="3.11037">
        <ele>8.6</ele>
        <time>2012-05-12T12:33:15Z</time>
      </trkpt>
      <trkpt lat="50.68048" lon="3.1101">
        <ele>3.4</ele>
        <time>2012-05-12T12:33:25Z</time>
      </trkpt>
      <trkpt lat="50.67994" lon="3.10963">
        <ele>2.8</ele>
        <time>2012-05-12T12:33:35Z</time>
      </trkpt>
      <trkpt lat="50.67948" lon="3.10928">
        <ele>2.8</ele>
        <time>2012-05-12T12:33:48Z</time>
      </trkpt>
      <trkpt lat="50.67902" lon="3.10892">
        <ele>2.8</ele>
        <time>2012-05-12T12:34:01Z</time>
      </trkpt>
      <trkpt lat="50.67889" lon="3.1088">
        <ele>-0.9</ele>
        <time>2012-05-12T12:34:07Z</time>
      </trkpt>
      <trkpt lat="50.6788" lon="3.10876">
        <ele>-6.2</ele>
        <time>2012-05-12T12:34:10Z</time>
      </trkpt>
      <trkpt lat="50.67835" lon="3.10825">
        <ele>-8.2</ele>
        <time>2012-05-12T12:34:22Z</time>
      </trkpt>
      <trkpt lat="50.67791" lon="3.1076">
        <ele>-8.2</ele>
        <time>2012-05-12T12:34:33Z</time>
      </trkpt>
      <trkpt lat="50.67765" lon="3.10698">
        <ele>-8.2</ele>
        <time>2012-05-12T12:34:46Z</time>
      </trkpt>
      <trkpt lat="50.67734" lon="3.10642">
        <ele>-8.2</ele>
        <time>2012-05-12T12:34:55Z</time>
      </trkpt>
      <trkpt lat="50.67691" lon="3.10579">
        <ele>-8.2</ele>
        <time>2012-05-12T12:35:06Z</time>
      </trkpt>
      <trkpt lat="50.67656" lon="3.1052">
        <ele>-8.2</ele>
        <time>2012-05-12T12:35:20Z</time>
      </trkpt>
      <trkpt lat="50.67629" lon="3.10432">
        <ele>-8.2</ele>
        <time>2012-05-12T12:35:29Z</time>
      </trkpt>
      <trkpt lat="50.67616" lon="3.10359">
        <ele>-8.2</ele>
        <time>2012-05-12T12:35:42Z</time>
      </trkpt>
      <trkpt lat="50.67612" lon="3.10283">
        <ele>-8.2</ele>
        <time>2012-05-12T12:35:56Z</time>
      </trkpt>
      <trkpt lat="50.67603" lon="3.10212">
        <ele>-8.2</ele>
        <time>2012-05-12T12:36:06Z</time>
      </trkpt>
      <trkpt lat="50.67606" lon="3.10139">
        <ele>-8.2</ele>
        <time>2012-05-12T12:36:16Z</time>
      </trkpt>
      <trkpt lat="50.67626" lon="3.10057">
        <ele>-8.2</ele>
        <time>2012-05-12T12:36:27Z</time>
      </trkpt>
      <trkpt lat="50.67649" lon="3.09988">
        <ele>-8.2</ele>
        <time>2012-05-12T12:36:39Z</time>
      </trkpt>
      <trkpt lat="50.67683" lon="3.09922">
        <ele>-8.2</ele>
        <time>2012-05-12T12:36:51Z</time>
      </trkpt>
      <trkpt lat="50.67712" lon="3.09868">
        <ele>-8.2</ele>
        <time>2012-05-12T12:37:02Z</time>
      </trkpt>
      <trkpt lat="50.6773" lon="3.09801">
        <ele>-8.2</ele>
        <time>2012-05-12T12:37:13Z</time>
      </trkpt>
      <trkpt lat="50.67741" lon="3.09726">
        <ele>-8.2</ele>
        <time>2012-05-12T12:37:24Z</time>
      </trkpt>
      <trkpt lat="50.67762" lon="3.09658">
        <ele>-8.2</ele>
        <time>2012-05-12T12:37:36Z</time>
      </trkpt>
      <trkpt lat="50.67791" lon="3.09599">
        <ele>-8.2</ele>
        <time>2012-05-12T12:37:51Z</time>
      </trkpt>
      <trkpt lat="50.67807" lon="3.09561">
        <ele>-8.2</ele>
        <time>2012-05-12T12:37:57Z</time>
      </trkpt>
      <trkpt lat="50.678" lon="3.0949">
        <ele>-8.2</ele>
        <time>2012-05-12T12:38:11Z</time>
      </trkpt>
      <trkpt lat="50.67752" lon="3.0944">
        <ele>-8.2</ele>
        <time>2012-05-12T12:38:23Z</time>
      </trkpt>
      <trkpt lat="50.67711" lon="3.09383">
        <ele>-8.2</ele>
        <time>2012-05-12T12:38:39Z</time>
      </trkpt>
      <trkpt lat="50.67674" lon="3.09334">
        <ele>-3.3</ele>
        <time>2012-05-12T12:38:53Z</time>
      </trkpt>
      <trkpt lat="50.67668" lon="3.09327">
        <ele>0.1</ele>
        <time>2012-05-12T12:38:55Z</time>
      </trkpt>
      <trkpt lat="50.67615" lon="3.09323">
        <ele>1.8</ele>
        <time>2012-05-12T12:39:10Z</time>
      </trkpt>
      <trkpt lat="50.67569" lon="3.09321">
        <ele>1.8</ele>
        <time>2012-05-12T12:39:25Z</time>
      </trkpt>
      <trkpt lat="50.67577" lon="3.0932">
        <ele>1.8</ele>
        <time>2012-05-12T12:39:25Z</time>
      </trkpt>
      <trkpt lat="50.67505" lon="3.0928">
        <ele>1.8</ele>
        <time>2012-05-12T12:39:33Z</time>
      </trkpt>
      <trkpt lat="50.67456" lon="3.09232">
        <ele>1.8</ele>
        <time>2012-05-12T12:39:46Z</time>
      </trkpt>
      <trkpt lat="50.67425" lon="3.09179">
        <ele>1.8</ele>
        <time>2012-05-12T12:39:59Z</time>
      </trkpt>
      <trkpt lat="50.67404" lon="3.0911">
        <ele>1.8</ele>
        <time>2012-05-12T12:40:12Z</time>
      </trkpt>
      <trkpt lat="50.67389" lon="3.09039">
        <ele>1.8</ele>
        <time>2012-05-12T12:40:25Z</time>
      </trkpt>
      <trkpt lat="50.67388" lon="3.0899">
        <ele>1.8</ele>
        <time>2012-05-12T12:40:33Z</time>
      </trkpt>
      <trkpt lat="50.67398" lon="3.08921">
        <ele>1.8</ele>
        <time>2012-05-12T12:40:44Z</time>
      </trkpt>
      <trkpt lat="50.67412" lon="3.08848">
        <ele>1.8</ele>
        <time>2012-05-12T12:40:57Z</time>
      </trkpt>
      <trkpt lat="50.67413" lon="3.08768">
        <ele>1.8</ele>
        <time>2012-05-12T12:41:10Z</time>
      </trkpt>
      <trkpt lat="50.67389" lon="3.08693">
        <ele>1.8</ele>
        <time>2012-05-12T12:41:28Z</time>
      </trkpt>
      <trkpt lat="50.67361" lon="3.08628">
        <ele>1.8</ele>
        <time>2012-05-12T12:41:40Z</time>
      </trkpt>
      <trkpt lat="50.67331" lon="3.08571">
        <ele>1.8</ele>
        <time>2012-05-12T12:41:54Z</time>
      </trkpt>
      <trkpt lat="50.67299" lon="3.08519">
        <ele>1.8</ele>
        <time>2012-05-12T12:42:07Z</time>
      </trkpt>
      <trkpt lat="50.67259" lon="3.0848">
        <ele>1.8</ele>
        <time>2012-05-12T12:42:19Z</time>
      </trkpt>
      <trkpt lat="50.67217" lon="3.08452">
        <ele>1.8</ele>
        <time>2012-05-12T12:42:30Z</time>
      </trkpt>
      <trkpt lat="50.67172" lon="3.0843">
        <ele>1.8</ele>
        <time>2012-05-12T12:42:40Z</time>
      </trkpt>
      <trkpt lat="50.67157" lon="3.08422">
        <ele>1.8</ele>
        <time>2012-05-12T12:42:45Z</time>
      </trkpt>
      <trkpt lat="50.67118" lon="3.08378">
        <ele>1.8</ele>
        <time>2012-05-12T12:42:55Z</time>
      </trkpt>
      <trkpt lat="50.67084" lon="3.08319">
        <ele>1.8</ele>
        <time>2012-05-12T12:43:05Z</time>
      </trkpt>
      <trkpt lat="50.67066" lon="3.08291">
        <ele>1.8</ele>
        <time>2012-05-12T12:43:11Z</time>
      </trkpt>
      <trkpt lat="50.67033" lon="3.08275">
        <ele>1.8</ele>
        <time>2012-05-12T12:43:17Z</time>
      </trkpt>
      <trkpt lat="50.66976" lon="3.08269">
        <ele>1.8</ele>
        <time>2012-05-12T12:43:24Z</time>
      </trkpt>
      <trkpt lat="50.66933" lon="3.08249">
        <ele>1.8</ele>
        <time>2012-05-12T12:43:40Z</time>
      </trkpt>
      <trkpt lat="50.6689" lon="3.08219">
        <ele>1.8</ele>
        <time>2012-05-12T12:43:50Z</time>
      </trkpt>
      <trkpt lat="50.66852" lon="3.08174">
        <ele>1.8</ele>
        <time>2012-05-12T12:43:57Z</time>
      </trkpt>
      <trkpt lat="50.66827" lon="3.081">
        <ele>1.8</ele>
        <time>2012-05-12T12:44:09Z</time>
      </trkpt>
      <trkpt lat="50.66807" lon="3.08034">
        <ele>1.8</ele>
        <time>2012-05-12T12:44:20Z</time>
      </trkpt>
      <trkpt lat="50.66797" lon="3.07959">
        <ele>1.8</ele>
        <time>2012-05-12T12:44:32Z</time>
      </trkpt>
      <trkpt lat="50.66796" lon="3.07884">
        <ele>8.4</ele>
        <time>2012-05-12T12:44:43Z</time>
      </trkpt>
      <trkpt lat="50.66803" lon="3.07808">
        <ele>12.8</ele>
        <time>2012-05-12T12:44:55Z</time>
      </trkpt>
      <trkpt lat="50.66823" lon="3.07735">
        <ele>12.8</ele>
        <time>2012-05-12T12:45:09Z</time>
      </trkpt>
      <trkpt lat="50.66857" lon="3.07664">
        <ele>12.8</ele>
        <time>2012-05-12T12:45:26Z</time>
      </trkpt>
      <trkpt lat="50.6689" lon="3.07606">
        <ele>12.8</ele>
        <time>2012-05-12T12:45:36Z</time>
      </trkpt>
      <trkpt lat="50.6692" lon="3.07552">
        <ele>12.8</ele>
        <time>2012-05-12T12:45:47Z</time>
      </trkpt>
      <trkpt lat="50.66947" lon="3.07494">
        <ele>12.8</ele>
        <time>2012-05-12T12:45:59Z</time>
      </trkpt>
      <trkpt lat="50.66979" lon="3.07438">
        <ele>12.8</ele>
        <time>2012-05-12T12:46:10Z</time>
      </trkpt>
      <trkpt lat="50.67018" lon="3.07392">
        <ele>12.8</ele>
        <time>2012-05-12T12:46:19Z</time>
      </trkpt>
      <trkpt lat="50.67058" lon="3.07352">
        <ele>12.8</ele>
        <time>2012-05-12T12:46:30Z</time>
      </trkpt>
      <trkpt lat="50.67104" lon="3.07305">
        <ele>12.8</ele>
        <time>2012-05-12T12:46:40Z</time>
      </trkpt>
      <trkpt lat="50.67136" lon="3.07275">
        <ele>12.8</ele>
        <time>2012-05-12T12:46:54Z</time>
      </trkpt>
      <trkpt lat="50.67139" lon="3.07281">
        <ele>12.8</ele>
        <time>2012-05-12T12:46:56Z</time>
      </trkpt>
      <trkpt lat="50.67143" lon="3.07311">
        <ele>12.8</ele>
        <time>2012-05-12T12:47:06Z</time>
      </trkpt>
      <trkpt lat="50.67187" lon="3.07299">
        <ele>12.8</ele>
        <time>2012-05-12T12:47:17Z</time>
      </trkpt>
      <trkpt lat="50.67236" lon="3.07296">
        <ele>12.8</ele>
        <time>2012-05-12T12:47:28Z</time>
      </trkpt>
      <trkpt lat="50.67284" lon="3.07293">
        <ele>12.8</ele>
        <time>2012-05-12T12:47:42Z</time>
      </trkpt>
      <trkpt lat="50.67331" lon="3.0729">
        <ele>12.8</ele>
        <time>2012-05-12T12:47:55Z</time>
      </trkpt>
      <trkpt lat="50.67379" lon="3.0731">
        <ele>12.8</ele>
        <time>2012-05-12T12:48:07Z</time>
      </trkpt>
      <trkpt lat="50.67422" lon="3.07343">
        <ele>12.8</ele>
        <time>2012-05-12T12:48:19Z</time>
      </trkpt>
      <trkpt lat="50.67485" lon="3.07388">
        <ele>12.8</ele>
        <time>2012-05-12T12:48:30Z</time>
      </trkpt>
      <trkpt lat="50.6753" lon="3.07422">
        <ele>12.8</ele>
        <time>2012-05-12T12:48:45Z</time>
      </trkpt>
      <trkpt lat="50.67575" lon="3.07451">
        <ele>12.8</ele>
        <time>2012-05-12T12:48:56Z</time>
      </trkpt>
      <trkpt lat="50.67618" lon="3.07484">
        <ele>1.8</ele>
        <time>2012-05-12T12:49:08Z</time>
      </trkpt>
      <trkpt lat="50.6768" lon="3.07531">
        <ele>1.8</ele>
        <time>2012-05-12T12:49:18Z</time>
      </trkpt>
      <trkpt lat="50.67723" lon="3.07557">
        <ele>1.8</ele>
        <time>2012-05-12T12:49:31Z</time>
      </trkpt>
      <trkpt lat="50.67753" lon="3.07567">
        <ele>1.8</ele>
        <time>2012-05-12T12:49:38Z</time>
      </trkpt>
      <trkpt lat="50.67795" lon="3.07543">
        <ele>1.8</ele>
        <time>2012-05-12T12:49:49Z</time>
      </trkpt>
      <trkpt lat="50.67828" lon="3.07493">
        <ele>1.8</ele>
        <time>2012-05-12T12:49:59Z</time>
      </trkpt>
      <trkpt lat="50.67873" lon="3.07409">
        <ele>1.8</ele>
        <time>2012-05-12T12:50:11Z</time>
      </trkpt>
      <trkpt lat="50.67901" lon="3.07351">
        <ele>1.8</ele>
        <time>2012-05-12T12:50:29Z</time>
      </trkpt>
      <trkpt lat="50.67925" lon="3.07289">
        <ele>1.8</ele>
        <time>2012-05-12T12:50:40Z</time>
      </trkpt>
      <trkpt lat="50.67941" lon="3.07221">
        <ele>8.6</ele>
        <time>2012-05-12T12:50:50Z</time>
      </trkpt>
      <trkpt lat="50.67956" lon="3.07151">
        <ele>11.8</ele>
        <time>2012-05-12T12:51:08Z</time>
      </trkpt>
      <trkpt lat="50.67956" lon="3.07119">
        <ele>11.8</ele>
        <time>2012-05-12T12:51:15Z</time>
      </trkpt>
      <trkpt lat="50.67942" lon="3.07045">
        <ele>11.8</ele>
        <time>2012-05-12T12:51:32Z</time>
      </trkpt>
      <trkpt lat="50.67923" lon="3.06975">
        <ele>11.8</ele>
        <time>2012-05-12T12:51:45Z</time>
      </trkpt>
      <trkpt lat="50.67897" lon="3.06911">
        <ele>11.8</ele>
        <time>2012-05-12T12:51:54Z</time>
      </trkpt>
      <trkpt lat="50.6787" lon="3.06849">
        <ele>11.8</ele>
        <time>2012-05-12T12:52:03Z</time>
      </trkpt>
      <trkpt lat="50.67837" lon="3.06792">
        <ele>11.8</ele>
        <time>2012-05-12T12:52:11Z</time>
      </trkpt>
      <trkpt lat="50.67834" lon="3.06786">
        <ele>11.8</ele>
        <time>2012-05-12T12:52:13Z</time>
      </trkpt>
      <trkpt lat="50.67826" lon="3.0679">
        <ele>11.8</ele>
        <time>2012-05-12T12:52:14Z</time>
      </trkpt>
      <trkpt lat="50.67777" lon="3.06784">
        <ele>11.8</ele>
        <time>2012-05-12T12:52:22Z</time>
      </trkpt>
      <trkpt lat="50.67732" lon="3.0677">
        <ele>6.5</ele>
        <time>2012-05-12T12:52:36Z</time>
      </trkpt>
      <trkpt lat="50.67717" lon="3.06763">
        <ele>-2.5</ele>
        <time>2012-05-12T12:52:41Z</time>
      </trkpt>
      <trkpt lat="50.67672" lon="3.06741">
        <ele>-8.2</ele>
        <time>2012-05-12T12:52:55Z</time>
      </trkpt>
      <trkpt lat="50.6763" lon="3.0671">
        <ele>-8.2</ele>
        <time>2012-05-12T12:53:05Z</time>
      </trkpt>
      <trkpt lat="50.67588" lon="3.06666">
        <ele>-8.2</ele>
        <time>2012-05-12T12:53:13Z</time>
      </trkpt>
      <trkpt lat="50.67558" lon="3.06638">
        <ele>-8.2</ele>
        <time>2012-05-12T12:53:19Z</time>
      </trkpt>
      <trkpt lat="50.67543" lon="3.06605">
        <ele>-8.2</ele>
        <time>2012-05-12T12:53:24Z</time>
      </trkpt>
      <trkpt lat="50.6749" lon="3.0656">
        <ele>-8.2</ele>
        <time>2012-05-12T12:53:34Z</time>
      </trkpt>
      <trkpt lat="50.6745" lon="3.06522">
        <ele>-8.2</ele>
        <time>2012-05-12T12:53:48Z</time>
      </trkpt>
      <trkpt lat="50.67427" lon="3.06444">
        <ele>-8.2</ele>
        <time>2012-05-12T12:53:58Z</time>
      </trkpt>
      <trkpt lat="50.67413" lon="3.06362">
        <ele>-8.2</ele>
        <time>2012-05-12T12:54:10Z</time>
      </trkpt>
      <trkpt lat="50.674" lon="3.06283">
        <ele>-8.2</ele>
        <time>2012-05-12T12:54:21Z</time>
      </trkpt>
      <trkpt lat="50.67402" lon="3.06242">
        <ele>-8.2</ele>
        <time>2012-05-12T12:54:27Z</time>
      </trkpt>
      <trkpt lat="50.67442" lon="3.06182">
        <ele>-8.2</ele>
        <time>2012-05-12T12:54:43Z</time>
      </trkpt>
      <trkpt lat="50.67452" lon="3.06158">
        <ele>-5.6</ele>
        <time>2012-05-12T12:54:54Z</time>
      </trkpt>
      <trkpt lat="50.67506" lon="3.06111">
        <ele>5.8</ele>
        <time>2012-05-12T12:55:12Z</time>
      </trkpt>
      <trkpt lat="50.67524" lon="3.06088">
        <ele>5.8</ele>
        <time>2012-05-12T12:55:23Z</time>
      </trkpt>
      <trkpt lat="50.67529" lon="3.06074">
        <ele>5.8</ele>
        <time>2012-05-12T12:55:30Z</time>
      </trkpt>
      <trkpt lat="50.67539" lon="3.06074">
        <ele>5.8</ele>
        <time>2012-05-12T12:55:35Z</time>
      </trkpt>
      <trkpt lat="50.67552" lon="3.06083">
        <ele>5.8</ele>
        <time>2012-05-12T12:55:42Z</time>
      </trkpt>
      <trkpt lat="50.67604" lon="3.06071">
        <ele>5.8</ele>
        <time>2012-05-12T12:55:56Z</time>
      </trkpt>
      <trkpt lat="50.67652" lon="3.06052">
        <ele>5.8</ele>
        <time>2012-05-12T12:56:10Z</time>
      </trkpt>
      <trkpt lat="50.67697" lon="3.06037">
        <ele>5.8</ele>
        <time>2012-05-12T12:56:25Z</time>
      </trkpt>
      <trkpt lat="50.67745" lon="3.06023">
        <ele>5.8</ele>
        <time>2012-05-12T12:56:43Z</time>
      </trkpt>
      <trkpt lat="50.6779" lon="3.06011">
        <ele>5.8</ele>
        <time>2012-05-12T12:56:53Z</time>
      </trkpt>
      <trkpt lat="50.67836" lon="3.05992">
        <ele>5.8</ele>
        <time>2012-05-12T12:57:06Z</time>
      </trkpt>
      <trkpt lat="50.67884" lon="3.05986">
        <ele>5.8</ele>
        <time>2012-05-12T12:57:20Z</time>
      </trkpt>
      <trkpt lat="50.67929" lon="3.05999">
        <ele>5.8</ele>
        <time>2012-05-12T12:57:34Z</time>
      </trkpt>
      <trkpt lat="50.67975" lon="3.06">
        <ele>5.8</ele>
        <time>2012-05-12T12:57:49Z</time>
      </trkpt>
      <trkpt lat="50.68022" lon="3.06007">
        <ele>5.8</ele>
        <time>2012-05-12T12:58:03Z</time>
      </trkpt>
      <trkpt lat="50.68075" lon="3.06004">
        <ele>5.8</ele>
        <time>2012-05-12T12:58:19Z</time>
      </trkpt>
      <trkpt lat="50.68121" lon="3.06013">
        <ele>-5.2</ele>
        <time>2012-05-12T12:58:40Z</time>
      </trkpt>
      <trkpt lat="50.68168" lon="3.06021">
        <ele>-5.2</ele>
        <time>2012-05-12T12:58:57Z</time>
      </trkpt>
      <trkpt lat="50.68213" lon="3.06019">
        <ele>-5.2</ele>
        <time>2012-05-12T12:59:07Z</time>
      </trkpt>
      <trkpt lat="50.68258" lon="3.06004">
        <ele>-5.2</ele>
        <time>2012-05-12T12:59:21Z</time>
      </trkpt>
      <trkpt lat="50.68305" lon="3.05992">
        <ele>-5.2</ele>
        <time>2012-05-12T12:59:37Z</time>
      </trkpt>
      <trkpt lat="50.68348" lon="3.05972">
        <ele>-5.2</ele>
        <time>2012-05-12T12:59:52Z</time>
      </trkpt>
      <trkpt lat="50.68394" lon="3.05953">
        <ele>-2.4</ele>
        <time>2012-05-12T13:00:07Z</time>
      </trkpt>
      <trkpt lat="50.68432" lon="3.05912">
        <ele>4.8</ele>
        <time>2012-05-12T13:00:18Z</time>
      </trkpt>
      <trkpt lat="50.68474" lon="3.05881">
        <ele>4.8</ele>
        <time>2012-05-12T13:00:32Z</time>
      </trkpt>
      <trkpt lat="50.68517" lon="3.0585">
        <ele>4.8</ele>
        <time>2012-05-12T13:00:46Z</time>
      </trkpt>
      <trkpt lat="50.68598" lon="3.05781">
        <ele>4.8</ele>
        <time>2012-05-12T13:01:10Z</time>
      </trkpt>
      <trkpt lat="50.68598" lon="3.05781">
        <ele>4.8</ele>
        <time>2012-05-12T13:01:48Z</time>
      </trkpt>
      <trkpt lat="50.68635" lon="3.05742">
        <ele>4.8</ele>
        <time>2012-05-12T13:01:57Z</time>
      </trkpt>
      <trkpt lat="50.68674" lon="3.05648">
        <ele>4.8</ele>
        <time>2012-05-12T13:02:12Z</time>
      </trkpt>
      <trkpt lat="50.68706" lon="3.05591">
        <ele>4.8</ele>
        <time>2012-05-12T13:02:31Z</time>
      </trkpt>
      <trkpt lat="50.6874" lon="3.0554">
        <ele>4.8</ele>
        <time>2012-05-12T13:02:43Z</time>
      </trkpt>
      <trkpt lat="50.68781" lon="3.05483">
        <ele>4.8</ele>
        <time>2012-05-12T13:02:58Z</time>
      </trkpt>
      <trkpt lat="50.68822" lon="3.05445">
        <ele>4.8</ele>
        <time>2012-05-12T13:03:17Z</time>
      </trkpt>
      <trkpt lat="50.68864" lon="3.05399">
        <ele>4.8</ele>
        <time>2012-05-12T13:03:35Z</time>
      </trkpt>
      <trkpt lat="50.68904" lon="3.05352">
        <ele>4.8</ele>
        <time>2012-05-12T13:03:49Z</time>
      </trkpt>
      <trkpt lat="50.68947" lon="3.0533">
        <ele>4.8</ele>
        <time>2012-05-12T13:04:05Z</time>
      </trkpt>
      <trkpt lat="50.68984" lon="3.05286">
        <ele>4.8</ele>
        <time>2012-05-12T13:04:22Z</time>
      </trkpt>
      <trkpt lat="50.69023" lon="3.05242">
        <ele>4.8</ele>
        <time>2012-05-12T13:04:38Z</time>
      </trkpt>
      <trkpt lat="50.69059" lon="3.05198">
        <ele>4.8</ele>
        <time>2012-05-12T13:04:51Z</time>
      </trkpt>
      <trkpt lat="50.69094" lon="3.05153">
        <ele>4.8</ele>
        <time>2012-05-12T13:05:05Z</time>
      </trkpt>
      <trkpt lat="50.69115" lon="3.05127">
        <ele>4.8</ele>
        <time>2012-05-12T13:05:18Z</time>
      </trkpt>
      <trkpt lat="50.69154" lon="3.05088">
        <ele>4.8</ele>
        <time>2012-05-12T13:05:29Z</time>
      </trkpt>
      <trkpt lat="50.69186" lon="3.05036">
        <ele>4.8</ele>
        <time>2012-05-12T13:05:41Z</time>
      </trkpt>
      <trkpt lat="50.69214" lon="3.04978">
        <ele>4.8</ele>
        <time>2012-05-12T13:05:55Z</time>
      </trkpt>
      <trkpt lat="50.69236" lon="3.04912">
        <ele>4.8</ele>
        <time>2012-05-12T13:06:12Z</time>
      </trkpt>
      <trkpt lat="50.69252" lon="3.04841">
        <ele>4.8</ele>
        <time>2012-05-12T13:06:27Z</time>
      </trkpt>
      <trkpt lat="50.69268" lon="3.04771">
        <ele>4.8</ele>
        <time>2012-05-12T13:06:40Z</time>
      </trkpt>
      <trkpt lat="50.69277" lon="3.04699">
        <ele>4.8</ele>
        <time>2012-05-12T13:06:52Z</time>
      </trkpt>
      <trkpt lat="50.6928" lon="3.04531">
        <ele>4.8</ele>
        <time>2012-05-12T13:07:14Z</time>
      </trkpt>
      <trkpt lat="50.6928" lon="3.04531">
        <ele>14.8</ele>
        <time>2012-05-12T13:09:02Z</time>
      </trkpt>
      <trkpt lat="50.69285" lon="3.04437">
        <ele>14.8</ele>
        <time>2012-05-12T13:09:11Z</time>
      </trkpt>
      <trkpt lat="50.69288" lon="3.04364">
        <ele>14.8</ele>
        <time>2012-05-12T13:09:27Z</time>
      </trkpt>
      <trkpt lat="50.69293" lon="3.04293">
        <ele>14.8</ele>
        <time>2012-05-12T13:09:42Z</time>
      </trkpt>
      <trkpt lat="50.69303" lon="3.04222">
        <ele>14.8</ele>
        <time>2012-05-12T13:09:56Z</time>
      </trkpt>
      <trkpt lat="50.69313" lon="3.04152">
        <ele>14.8</ele>
        <time>2012-05-12T13:10:11Z</time>
      </trkpt>
      <trkpt lat="50.69321" lon="3.04081">
        <ele>14.8</ele>
        <time>2012-05-12T13:10:26Z</time>
      </trkpt>
      <trkpt lat="50.69333" lon="3.0401">
        <ele>14.8</ele>
        <time>2012-05-12T13:10:40Z</time>
      </trkpt>
      <trkpt lat="50.69346" lon="3.0394">
        <ele>14.8</ele>
        <time>2012-05-12T13:10:54Z</time>
      </trkpt>
      <trkpt lat="50.69359" lon="3.03863">
        <ele>14.8</ele>
        <time>2012-05-12T13:11:09Z</time>
      </trkpt>
      <trkpt lat="50.69373" lon="3.03793">
        <ele>14.8</ele>
        <time>2012-05-12T13:11:26Z</time>
      </trkpt>
      <trkpt lat="50.69388" lon="3.03724">
        <ele>14.8</ele>
        <time>2012-05-12T13:11:41Z</time>
      </trkpt>
      <trkpt lat="50.69405" lon="3.03654">
        <ele>14.8</ele>
        <time>2012-05-12T13:11:56Z</time>
      </trkpt>
      <trkpt lat="50.69424" lon="3.03585">
        <ele>14.8</ele>
        <time>2012-05-12T13:12:10Z</time>
      </trkpt>
      <trkpt lat="50.69452" lon="3.03503">
        <ele>14.8</ele>
        <time>2012-05-12T13:12:24Z</time>
      </trkpt>
      <trkpt lat="50.69467" lon="3.03435">
        <ele>14.8</ele>
        <time>2012-05-12T13:12:40Z</time>
      </trkpt>
      <trkpt lat="50.69487" lon="3.03369">
        <ele>14.8</ele>
        <time>2012-05-12T13:12:54Z</time>
      </trkpt>
      <trkpt lat="50.69515" lon="3.03297">
        <ele>14.8</ele>
        <time>2012-05-12T13:13:07Z</time>
      </trkpt>
      <trkpt lat="50.6954" lon="3.03232">
        <ele>14.8</ele>
        <time>2012-05-12T13:13:22Z</time>
      </trkpt>
      <trkpt lat="50.69557" lon="3.03162">
        <ele>14.8</ele>
        <time>2012-05-12T13:13:40Z</time>
      </trkpt>
      <trkpt lat="50.69577" lon="3.0309">
        <ele>0.9</ele>
        <time>2012-05-12T13:13:55Z</time>
      </trkpt>
      <trkpt lat="50.69601" lon="3.03014">
        <ele>-4.2</ele>
        <time>2012-05-12T13:14:13Z</time>
      </trkpt>
      <trkpt lat="50.69632" lon="3.02922">
        <ele>-4.2</ele>
        <time>2012-05-12T13:14:27Z</time>
      </trkpt>
      <trkpt lat="50.69665" lon="3.02836">
        <ele>-4.2</ele>
        <time>2012-05-12T13:14:44Z</time>
      </trkpt>
      <trkpt lat="50.69681" lon="3.02765">
        <ele>-4.2</ele>
        <time>2012-05-12T13:15:02Z</time>
      </trkpt>
      <trkpt lat="50.69689" lon="3.02694">
        <ele>-4.2</ele>
        <time>2012-05-12T13:15:15Z</time>
      </trkpt>
      <trkpt lat="50.69698" lon="3.0261">
        <ele>5.8</ele>
        <time>2012-05-12T13:15:29Z</time>
      </trkpt>
      <trkpt lat="50.69712" lon="3.02538">
        <ele>5.8</ele>
        <time>2012-05-12T13:15:47Z</time>
      </trkpt>
      <trkpt lat="50.6973" lon="3.02464">
        <ele>5.8</ele>
        <time>2012-05-12T13:16:02Z</time>
      </trkpt>
      <trkpt lat="50.69742" lon="3.02388">
        <ele>5.8</ele>
        <time>2012-05-12T13:16:22Z</time>
      </trkpt>
      <trkpt lat="50.69763" lon="3.02316">
        <ele>5.8</ele>
        <time>2012-05-12T13:16:36Z</time>
      </trkpt>
      <trkpt lat="50.69785" lon="3.02254">
        <ele>5.8</ele>
        <time>2012-05-12T13:16:49Z</time>
      </trkpt>
      <trkpt lat="50.6981" lon="3.02194">
        <ele>5.8</ele>
        <time>2012-05-12T13:17:02Z</time>
      </trkpt>
      <trkpt lat="50.69839" lon="3.0214">
        <ele>5.8</ele>
        <time>2012-05-12T13:17:17Z</time>
      </trkpt>
      <trkpt lat="50.69874" lon="3.02091">
        <ele>5.8</ele>
        <time>2012-05-12T13:17:33Z</time>
      </trkpt>
      <trkpt lat="50.6992" lon="3.02083">
        <ele>-5.2</ele>
        <time>2012-05-12T13:17:49Z</time>
      </trkpt>
      <trkpt lat="50.69947" lon="3.02061">
        <ele>-5.2</ele>
        <time>2012-05-12T13:17:58Z</time>
      </trkpt>
      <trkpt lat="50.69968" lon="3.01987">
        <ele>-5.2</ele>
        <time>2012-05-12T13:18:14Z</time>
      </trkpt>
      <trkpt lat="50.70001" lon="3.01924">
        <ele>-5.2</ele>
        <time>2012-05-12T13:18:35Z</time>
      </trkpt>
      <trkpt lat="50.70034" lon="3.01868">
        <ele>-5.2</ele>
        <time>2012-05-12T13:18:46Z</time>
      </trkpt>
      <trkpt lat="50.7007" lon="3.01822">
        <ele>-5.2</ele>
        <time>2012-05-12T13:18:56Z</time>
      </trkpt>
      <trkpt lat="50.70106" lon="3.01775">
        <ele>-5.2</ele>
        <time>2012-05-12T13:19:10Z</time>
      </trkpt>
      <trkpt lat="50.70142" lon="3.01724">
        <ele>-5.2</ele>
        <time>2012-05-12T13:19:22Z</time>
      </trkpt>
      <trkpt lat="50.70179" lon="3.0168">
        <ele>-5.2</ele>
        <time>2012-05-12T13:19:35Z</time>
      </trkpt>
      <trkpt lat="50.70218" lon="3.01636">
        <ele>-5.2</ele>
        <time>2012-05-12T13:19:45Z</time>
      </trkpt>
      <trkpt lat="50.70259" lon="3.01594">
        <ele>-5.2</ele>
        <time>2012-05-12T13:19:56Z</time>
      </trkpt>
      <trkpt lat="50.70296" lon="3.01551">
        <ele>-5.2</ele>
        <time>2012-05-12T13:20:07Z</time>
      </trkpt>
      <trkpt lat="50.70332" lon="3.01506">
        <ele>-5.2</ele>
        <time>2012-05-12T13:20:17Z</time>
      </trkpt>
      <trkpt lat="50.70369" lon="3.01466">
        <ele>-5.2</ele>
        <time>2012-05-12T13:20:28Z</time>
      </trkpt>
      <trkpt lat="50.70405" lon="3.01422">
        <ele>-5.2</ele>
        <time>2012-05-12T13:20:39Z</time>
      </trkpt>
      <trkpt lat="50.70447" lon="3.01379">
        <ele>-5.2</ele>
        <time>2012-05-12T13:20:54Z</time>
      </trkpt>
      <trkpt lat="50.70485" lon="3.01332">
        <ele>-5.2</ele>
        <time>2012-05-12T13:21:15Z</time>
      </trkpt>
      <trkpt lat="50.70518" lon="3.01278">
        <ele>-5.2</ele>
        <time>2012-05-12T13:21:28Z</time>
      </trkpt>
      <trkpt lat="50.70553" lon="3.01229">
        <ele>-5.2</ele>
        <time>2012-05-12T13:21:40Z</time>
      </trkpt>
      <trkpt lat="50.70602" lon="3.01185">
        <ele>-5.2</ele>
        <time>2012-05-12T13:21:52Z</time>
      </trkpt>
      <trkpt lat="50.70645" lon="3.0114">
        <ele>-5.2</ele>
        <time>2012-05-12T13:22:10Z</time>
      </trkpt>
      <trkpt lat="50.70681" lon="3.01089">
        <ele>-11.9</ele>
        <time>2012-05-12T13:22:34Z</time>
      </trkpt>
      <trkpt lat="50.70714" lon="3.01037">
        <ele>-17.2</ele>
        <time>2012-05-12T13:22:45Z</time>
      </trkpt>
      <trkpt lat="50.7075" lon="3.00992">
        <ele>-17.2</ele>
        <time>2012-05-12T13:22:56Z</time>
      </trkpt>
      <trkpt lat="50.70799" lon="3.00954">
        <ele>-17.2</ele>
        <time>2012-05-12T13:23:09Z</time>
      </trkpt>
      <trkpt lat="50.70834" lon="3.00913">
        <ele>-17.2</ele>
        <time>2012-05-12T13:23:20Z</time>
      </trkpt>
      <trkpt lat="50.70868" lon="3.00863">
        <ele>-13.8</ele>
        <time>2012-05-12T13:23:38Z</time>
      </trkpt>
      <trkpt lat="50.70914" lon="3.0079">
        <ele>-7.2</ele>
        <time>2012-05-12T13:23:50Z</time>
      </trkpt>
      <trkpt lat="50.70948" lon="3.0074">
        <ele>-7.2</ele>
        <time>2012-05-12T13:24:06Z</time>
      </trkpt>
      <trkpt lat="50.70968" lon="3.0067">
        <ele>-7.2</ele>
        <time>2012-05-12T13:24:16Z</time>
      </trkpt>
      <trkpt lat="50.70995" lon="3.00606">
        <ele>-7.2</ele>
        <time>2012-05-12T13:24:44Z</time>
      </trkpt>
      <trkpt lat="50.71013" lon="3.0054">
        <ele>-7.2</ele>
        <time>2012-05-12T13:24:56Z</time>
      </trkpt>
      <trkpt lat="50.71012" lon="3.00482">
        <ele>-7.2</ele>
        <time>2012-05-12T13:25:07Z</time>
      </trkpt>
      <trkpt lat="50.71004" lon="3.00442">
        <ele>-7.2</ele>
        <time>2012-05-12T13:25:14Z</time>
      </trkpt>
      <trkpt lat="50.71023" lon="3.00375">
        <ele>-7.2</ele>
        <time>2012-05-12T13:25:27Z</time>
      </trkpt>
      <trkpt lat="50.71042" lon="3.00308">
        <ele>-7.2</ele>
        <time>2012-05-12T13:25:45Z</time>
      </trkpt>
      <trkpt lat="50.71067" lon="3.00247">
        <ele>-7.2</ele>
        <time>2012-05-12T13:26:02Z</time>
      </trkpt>
      <trkpt lat="50.71081" lon="3.00172">
        <ele>-7.2</ele>
        <time>2012-05-12T13:26:17Z</time>
      </trkpt>
      <trkpt lat="50.71063" lon="3.00088">
        <ele>-7.2</ele>
        <time>2012-05-12T13:26:32Z</time>
      </trkpt>
      <trkpt lat="50.71071" lon="2.99996">
        <ele>-7.2</ele>
        <time>2012-05-12T13:26:48Z</time>
      </trkpt>
      <trkpt lat="50.7108" lon="2.99921">
        <ele>-6.2</ele>
        <time>2012-05-12T13:27:05Z</time>
      </trkpt>
      <trkpt lat="50.71106" lon="2.998">
        <ele>2.8</ele>
        <time>2012-05-12T13:27:31Z</time>
      </trkpt>
      <trkpt lat="50.71106" lon="2.998">
        <ele>12.8</ele>
        <time>2012-05-12T13:29:09Z</time>
      </trkpt>
      <trkpt lat="50.71113" lon="2.99747">
        <ele>12.8</ele>
        <time>2012-05-12T13:29:09Z</time>
      </trkpt>
      <trkpt lat="50.71136" lon="2.99708">
        <ele>10.7</ele>
        <time>2012-05-12T13:29:20Z</time>
      </trkpt>
      <trkpt lat="50.71165" lon="2.99646">
        <ele>0.8</ele>
        <time>2012-05-12T13:29:38Z</time>
      </trkpt>
      <trkpt lat="50.71194" lon="2.99585">
        <ele>0.8</ele>
        <time>2012-05-12T13:29:55Z</time>
      </trkpt>
      <trkpt lat="50.71226" lon="2.99512">
        <ele>0.8</ele>
        <time>2012-05-12T13:30:07Z</time>
      </trkpt>
      <trkpt lat="50.71273" lon="2.99411">
        <ele>-15.2</ele>
        <time>2012-05-12T13:30:30Z</time>
      </trkpt>
      <trkpt lat="50.71303" lon="2.99355">
        <ele>-15.2</ele>
        <time>2012-05-12T13:30:59Z</time>
      </trkpt>
      <trkpt lat="50.71339" lon="2.99266">
        <ele>-15.2</ele>
        <time>2012-05-12T13:31:15Z</time>
      </trkpt>
      <trkpt lat="50.7136" lon="2.99202">
        <ele>-15.2</ele>
        <time>2012-05-12T13:31:30Z</time>
      </trkpt>
      <trkpt lat="50.71398" lon="2.99154">
        <ele>-15.2</ele>
        <time>2012-05-12T13:31:49Z</time>
      </trkpt>
      <trkpt lat="50.71431" lon="2.99077">
        <ele>-15.2</ele>
        <time>2012-05-12T13:32:00Z</time>
      </trkpt>
      <trkpt lat="50.71455" lon="2.99015">
        <ele>-13.7</ele>
        <time>2012-05-12T13:32:14Z</time>
      </trkpt>
      <trkpt lat="50.7148" lon="2.98952">
        <ele>-7.2</ele>
        <time>2012-05-12T13:32:27Z</time>
      </trkpt>
      <trkpt lat="50.71505" lon="2.98888">
        <ele>-4.1</ele>
        <time>2012-05-12T13:32:40Z</time>
      </trkpt>
      <trkpt lat="50.71527" lon="2.9882">
        <ele>-4.1</ele>
        <time>2012-05-12T13:32:54Z</time>
      </trkpt>
      <trkpt lat="50.71547" lon="2.98756">
        <ele>-4.1</ele>
        <time>2012-05-12T13:33:06Z</time>
      </trkpt>
      <trkpt lat="50.71565" lon="2.98686">
        <ele>-4.1</ele>
        <time>2012-05-12T13:33:21Z</time>
      </trkpt>
      <trkpt lat="50.71579" lon="2.98618">
        <ele>5.9</ele>
        <time>2012-05-12T13:33:34Z</time>
      </trkpt>
      <trkpt lat="50.71596" lon="2.98551">
        <ele>5.9</ele>
        <time>2012-05-12T13:33:49Z</time>
      </trkpt>
      <trkpt lat="50.71621" lon="2.9847">
        <ele>5.9</ele>
        <time>2012-05-12T13:34:04Z</time>
      </trkpt>
      <trkpt lat="50.71639" lon="2.98401">
        <ele>5.9</ele>
        <time>2012-05-12T13:34:22Z</time>
      </trkpt>
      <trkpt lat="50.71657" lon="2.98334">
        <ele>5.9</ele>
        <time>2012-05-12T13:34:35Z</time>
      </trkpt>
      <trkpt lat="50.71672" lon="2.9826">
        <ele>5.9</ele>
        <time>2012-05-12T13:34:48Z</time>
      </trkpt>
      <trkpt lat="50.71688" lon="2.98188">
        <ele>5.9</ele>
        <time>2012-05-12T13:35:00Z</time>
      </trkpt>
      <trkpt lat="50.71705" lon="2.98112">
        <ele>5.9</ele>
        <time>2012-05-12T13:35:15Z</time>
      </trkpt>
      <trkpt lat="50.71719" lon="2.98044">
        <ele>5.9</ele>
        <time>2012-05-12T13:35:30Z</time>
      </trkpt>
      <trkpt lat="50.71735" lon="2.97972">
        <ele>5.9</ele>
        <time>2012-05-12T13:35:43Z</time>
      </trkpt>
      <trkpt lat="50.71753" lon="2.97906">
        <ele>5.9</ele>
        <time>2012-05-12T13:35:56Z</time>
      </trkpt>
      <trkpt lat="50.7177" lon="2.9784">
        <ele>5.9</ele>
        <time>2012-05-12T13:36:10Z</time>
      </trkpt>
      <trkpt lat="50.71787" lon="2.97774">
        <ele>5.9</ele>
        <time>2012-05-12T13:36:21Z</time>
      </trkpt>
      <trkpt lat="50.71806" lon="2.97678">
        <ele>5.9</ele>
        <time>2012-05-12T13:36:34Z</time>
      </trkpt>
      <trkpt lat="50.71823" lon="2.97608">
        <ele>5.9</ele>
        <time>2012-05-12T13:36:56Z</time>
      </trkpt>
      <trkpt lat="50.71843" lon="2.97539">
        <ele>5.9</ele>
        <time>2012-05-12T13:37:12Z</time>
      </trkpt>
      <trkpt lat="50.71866" lon="2.97475">
        <ele>5.9</ele>
        <time>2012-05-12T13:37:24Z</time>
      </trkpt>
      <trkpt lat="50.71893" lon="2.97407">
        <ele>5.9</ele>
        <time>2012-05-12T13:37:39Z</time>
      </trkpt>
      <trkpt lat="50.71917" lon="2.97345">
        <ele>5.9</ele>
        <time>2012-05-12T13:37:55Z</time>
      </trkpt>
      <trkpt lat="50.71954" lon="2.97263">
        <ele>5.9</ele>
        <time>2012-05-12T13:38:09Z</time>
      </trkpt>
      <trkpt lat="50.71978" lon="2.97199">
        <ele>5.9</ele>
        <time>2012-05-12T13:38:29Z</time>
      </trkpt>
      <trkpt lat="50.72007" lon="2.97139">
        <ele>5.9</ele>
        <time>2012-05-12T13:38:42Z</time>
      </trkpt>
      <trkpt lat="50.72033" lon="2.97078">
        <ele>5.9</ele>
        <time>2012-05-12T13:38:55Z</time>
      </trkpt>
      <trkpt lat="50.7206" lon="2.97019">
        <ele>5.9</ele>
        <time>2012-05-12T13:39:07Z</time>
      </trkpt>
      <trkpt lat="50.72088" lon="2.96963">
        <ele>5.9</ele>
        <time>2012-05-12T13:39:19Z</time>
      </trkpt>
      <trkpt lat="50.72116" lon="2.96902">
        <ele>5.9</ele>
        <time>2012-05-12T13:39:31Z</time>
      </trkpt>
      <trkpt lat="50.72145" lon="2.96843">
        <ele>5.9</ele>
        <time>2012-05-12T13:39:44Z</time>
      </trkpt>
      <trkpt lat="50.72166" lon="2.96777">
        <ele>5.9</ele>
        <time>2012-05-12T13:39:59Z</time>
      </trkpt>
      <trkpt lat="50.72201" lon="2.96724">
        <ele>5.9</ele>
        <time>2012-05-12T13:40:22Z</time>
      </trkpt>
      <trkpt lat="50.7223" lon="2.96663">
        <ele>5.9</ele>
        <time>2012-05-12T13:40:40Z</time>
      </trkpt>
      <trkpt lat="50.72251" lon="2.96595">
        <ele>5.9</ele>
        <time>2012-05-12T13:40:54Z</time>
      </trkpt>
      <trkpt lat="50.72273" lon="2.96529">
        <ele>5.9</ele>
        <time>2012-05-12T13:41:07Z</time>
      </trkpt>
      <trkpt lat="50.72291" lon="2.9646">
        <ele>5.9</ele>
        <time>2012-05-12T13:41:19Z</time>
      </trkpt>
      <trkpt lat="50.72305" lon="2.96391">
        <ele>5.9</ele>
        <time>2012-05-12T13:41:34Z</time>
      </trkpt>
      <trkpt lat="50.72318" lon="2.96322">
        <ele>5.9</ele>
        <time>2012-05-12T13:41:46Z</time>
      </trkpt>
      <trkpt lat="50.72325" lon="2.96231">
        <ele>5.9</ele>
        <time>2012-05-12T13:41:59Z</time>
      </trkpt>
      <trkpt lat="50.72322" lon="2.96156">
        <ele>5.9</ele>
        <time>2012-05-12T13:42:14Z</time>
      </trkpt>
      <trkpt lat="50.72324" lon="2.9608">
        <ele>5.9</ele>
        <time>2012-05-12T13:42:27Z</time>
      </trkpt>
      <trkpt lat="50.72324" lon="2.96006">
        <ele>5.9</ele>
        <time>2012-05-12T13:42:40Z</time>
      </trkpt>
      <trkpt lat="50.72323" lon="2.95933">
        <ele>5.9</ele>
        <time>2012-05-12T13:42:54Z</time>
      </trkpt>
      <trkpt lat="50.72324" lon="2.9586">
        <ele>5.9</ele>
        <time>2012-05-12T13:43:07Z</time>
      </trkpt>
      <trkpt lat="50.72322" lon="2.95783">
        <ele>5.9</ele>
        <time>2012-05-12T13:43:20Z</time>
      </trkpt>
      <trkpt lat="50.72322" lon="2.9571">
        <ele>5.9</ele>
        <time>2012-05-12T13:43:35Z</time>
      </trkpt>
      <trkpt lat="50.72328" lon="2.95635">
        <ele>5.9</ele>
        <time>2012-05-12T13:43:50Z</time>
      </trkpt>
      <trkpt lat="50.72336" lon="2.9556">
        <ele>5.9</ele>
        <time>2012-05-12T13:44:01Z</time>
      </trkpt>
      <trkpt lat="50.72351" lon="2.95482">
        <ele>5.9</ele>
        <time>2012-05-12T13:44:14Z</time>
      </trkpt>
      <trkpt lat="50.72366" lon="2.95412">
        <ele>5.9</ele>
        <time>2012-05-12T13:44:27Z</time>
      </trkpt>
      <trkpt lat="50.72382" lon="2.95344">
        <ele>5.9</ele>
        <time>2012-05-12T13:44:39Z</time>
      </trkpt>
      <trkpt lat="50.72401" lon="2.95278">
        <ele>5.9</ele>
        <time>2012-05-12T13:44:51Z</time>
      </trkpt>
      <trkpt lat="50.72423" lon="2.95213">
        <ele>5.9</ele>
        <time>2012-05-12T13:45:04Z</time>
      </trkpt>
      <trkpt lat="50.72499" lon="2.95095">
        <ele>15.9</ele>
        <time>2012-05-12T13:45:25Z</time>
      </trkpt>
      <trkpt lat="50.72499" lon="2.95095">
        <ele>15.9</ele>
        <time>2012-05-12T13:46:25Z</time>
      </trkpt>
      <trkpt lat="50.72542" lon="2.95031">
        <ele>7</ele>
        <time>2012-05-12T13:46:30Z</time>
      </trkpt>
      <trkpt lat="50.72587" lon="2.94992">
        <ele>4.9</ele>
        <time>2012-05-12T13:46:46Z</time>
      </trkpt>
      <trkpt lat="50.72641" lon="2.94927">
        <ele>4.9</ele>
        <time>2012-05-12T13:47:00Z</time>
      </trkpt>
      <trkpt lat="50.72682" lon="2.9489">
        <ele>4.9</ele>
        <time>2012-05-12T13:47:20Z</time>
      </trkpt>
      <trkpt lat="50.72719" lon="2.94883">
        <ele>4.9</ele>
        <time>2012-05-12T13:47:30Z</time>
      </trkpt>
      <trkpt lat="50.7272" lon="2.94897">
        <ele>0.2</ele>
        <time>2012-05-12T13:47:45Z</time>
      </trkpt>
      <trkpt lat="50.72695" lon="2.9496">
        <ele>-16.9</ele>
        <time>2012-05-12T13:48:06Z</time>
      </trkpt>
      <trkpt lat="50.72654" lon="2.94992">
        <ele>-18.1</ele>
        <time>2012-05-12T13:48:19Z</time>
      </trkpt>
      <trkpt lat="50.726" lon="2.94993">
        <ele>-18.1</ele>
        <time>2012-05-12T13:48:33Z</time>
      </trkpt>
      <trkpt lat="50.72553" lon="2.9502">
        <ele>-18.1</ele>
        <time>2012-05-12T13:48:45Z</time>
      </trkpt>
      <trkpt lat="50.72524" lon="2.9505">
        <ele>-18.1</ele>
        <time>2012-05-12T13:48:51Z</time>
      </trkpt>
      <trkpt lat="50.72518" lon="2.95084">
        <ele>-18.1</ele>
        <time>2012-05-12T13:49:02Z</time>
      </trkpt>
      <trkpt lat="50.72579" lon="2.95093">
        <ele>-18.1</ele>
        <time>2012-05-12T13:49:21Z</time>
      </trkpt>
      <trkpt lat="50.72621" lon="2.95098">
        <ele>-18.1</ele>
        <time>2012-05-12T13:49:31Z</time>
      </trkpt>
      <trkpt lat="50.72642" lon="2.95097">
        <ele>-18.1</ele>
        <time>2012-05-12T13:49:48Z</time>
      </trkpt>
      <trkpt lat="50.72687" lon="2.95123">
        <ele>-18.1</ele>
        <time>2012-05-12T13:49:57Z</time>
      </trkpt>
      <trkpt lat="50.727" lon="2.95128">
        <ele>-18.1</ele>
        <time>2012-05-12T13:50:00Z</time>
      </trkpt>
      <trkpt lat="50.72741" lon="2.95085">
        <ele>-7.1</ele>
        <time>2012-05-12T13:50:19Z</time>
      </trkpt>
      <trkpt lat="50.72751" lon="2.95072">
        <ele>-7.1</ele>
        <time>2012-05-12T13:50:45Z</time>
      </trkpt>
      <trkpt lat="50.72751" lon="2.95072">
        <ele>2.9</ele>
        <time>2012-05-12T13:51:23Z</time>
      </trkpt>
      <trkpt lat="50.72753" lon="2.95001">
        <ele>2.9</ele>
        <time>2012-05-12T13:51:43Z</time>
      </trkpt>
      <trkpt lat="50.72753" lon="2.95001">
        <ele>12.9</ele>
        <time>2012-05-12T13:54:42Z</time>
      </trkpt>
      <trkpt lat="50.72754" lon="2.94933">
        <ele>12.9</ele>
        <time>2012-05-12T13:54:47Z</time>
      </trkpt>
      <trkpt lat="50.72774" lon="2.94858">
        <ele>12.9</ele>
        <time>2012-05-12T13:55:00Z</time>
      </trkpt>
      <trkpt lat="50.72804" lon="2.94804">
        <ele>12.9</ele>
        <time>2012-05-12T13:55:14Z</time>
      </trkpt>
      <trkpt lat="50.72836" lon="2.94752">
        <ele>12.9</ele>
        <time>2012-05-12T13:55:29Z</time>
      </trkpt>
      <trkpt lat="50.72876" lon="2.94712">
        <ele>12.9</ele>
        <time>2012-05-12T13:55:43Z</time>
      </trkpt>
      <trkpt lat="50.72916" lon="2.94675">
        <ele>12.9</ele>
        <time>2012-05-12T13:55:56Z</time>
      </trkpt>
      <trkpt lat="50.72958" lon="2.9464">
        <ele>12.9</ele>
        <time>2012-05-12T13:56:09Z</time>
      </trkpt>
      <trkpt lat="50.72999" lon="2.94603">
        <ele>12.9</ele>
        <time>2012-05-12T13:56:21Z</time>
      </trkpt>
      <trkpt lat="50.73056" lon="2.94563">
        <ele>12.9</ele>
        <time>2012-05-12T13:56:42Z</time>
      </trkpt>
      <trkpt lat="50.73094" lon="2.94544">
        <ele>12.9</ele>
        <time>2012-05-12T13:56:57Z</time>
      </trkpt>
      <trkpt lat="50.73115" lon="2.94547">
        <ele>12.9</ele>
        <time>2012-05-12T13:57:07Z</time>
      </trkpt>
      <trkpt lat="50.73168" lon="2.94563">
        <ele>12.9</ele>
        <time>2012-05-12T13:57:17Z</time>
      </trkpt>
      <trkpt lat="50.73214" lon="2.94561">
        <ele>5.2</ele>
        <time>2012-05-12T13:57:36Z</time>
      </trkpt>
      <trkpt lat="50.73266" lon="2.94517">
        <ele>0.9</ele>
        <time>2012-05-12T13:57:50Z</time>
      </trkpt>
      <trkpt lat="50.73311" lon="2.94473">
        <ele>0.9</ele>
        <time>2012-05-12T13:58:02Z</time>
      </trkpt>
      <trkpt lat="50.73354" lon="2.94435">
        <ele>0.9</ele>
        <time>2012-05-12T13:58:13Z</time>
      </trkpt>
      <trkpt lat="50.73386" lon="2.94418">
        <ele>0.9</ele>
        <time>2012-05-12T13:58:23Z</time>
      </trkpt>
      <trkpt lat="50.73437" lon="2.944">
        <ele>0.9</ele>
        <time>2012-05-12T13:58:54Z</time>
      </trkpt>
      <trkpt lat="50.7346" lon="2.94387">
        <ele>0.9</ele>
        <time>2012-05-12T13:59:02Z</time>
      </trkpt>
      <trkpt lat="50.73485" lon="2.94367">
        <ele>0.9</ele>
        <time>2012-05-12T13:59:15Z</time>
      </trkpt>
      <trkpt lat="50.73503" lon="2.94344">
        <ele>0.9</ele>
        <time>2012-05-12T13:59:32Z</time>
      </trkpt>
      <trkpt lat="50.73523" lon="2.94275">
        <ele>0.9</ele>
        <time>2012-05-12T13:59:50Z</time>
      </trkpt>
      <trkpt lat="50.73553" lon="2.9422">
        <ele>0.9</ele>
        <time>2012-05-12T14:00:01Z</time>
      </trkpt>
      <trkpt lat="50.73581" lon="2.9417">
        <ele>0.9</ele>
        <time>2012-05-12T14:00:13Z</time>
      </trkpt>
      <trkpt lat="50.736" lon="2.94115">
        <ele>0.9</ele>
        <time>2012-05-12T14:00:24Z</time>
      </trkpt>
      <trkpt lat="50.73644" lon="2.94084">
        <ele>0.9</ele>
        <time>2012-05-12T14:00:39Z</time>
      </trkpt>
      <trkpt lat="50.73686" lon="2.94055">
        <ele>0.9</ele>
        <time>2012-05-12T14:00:50Z</time>
      </trkpt>
      <trkpt lat="50.7373" lon="2.94027">
        <ele>0.9</ele>
        <time>2012-05-12T14:01:01Z</time>
      </trkpt>
      <trkpt lat="50.73777" lon="2.94007">
        <ele>0.9</ele>
        <time>2012-05-12T14:01:12Z</time>
      </trkpt>
      <trkpt lat="50.73822" lon="2.93994">
        <ele>0.9</ele>
        <time>2012-05-12T14:01:24Z</time>
      </trkpt>
      <trkpt lat="50.73875" lon="2.93973">
        <ele>0.9</ele>
        <time>2012-05-12T14:01:38Z</time>
      </trkpt>
      <trkpt lat="50.73938" lon="2.93966">
        <ele>0.9</ele>
        <time>2012-05-12T14:02:00Z</time>
      </trkpt>
      <trkpt lat="50.73976" lon="2.9396">
        <ele>0.9</ele>
        <time>2012-05-12T14:02:10Z</time>
      </trkpt>
      <trkpt lat="50.74022" lon="2.93964">
        <ele>-4.1</ele>
        <time>2012-05-12T14:02:20Z</time>
      </trkpt>
      <trkpt lat="50.74091" lon="2.93969">
        <ele>-10.1</ele>
        <time>2012-05-12T14:02:30Z</time>
      </trkpt>
      <trkpt lat="50.74142" lon="2.93978">
        <ele>-10.1</ele>
        <time>2012-05-12T14:02:42Z</time>
      </trkpt>
      <trkpt lat="50.74211" lon="2.93995">
        <ele>-10.1</ele>
        <time>2012-05-12T14:02:51Z</time>
      </trkpt>
      <trkpt lat="50.74259" lon="2.94012">
        <ele>-10.1</ele>
        <time>2012-05-12T14:03:06Z</time>
      </trkpt>
      <trkpt lat="50.74306" lon="2.94035">
        <ele>-10.1</ele>
        <time>2012-05-12T14:03:16Z</time>
      </trkpt>
      <trkpt lat="50.7435" lon="2.94059">
        <ele>-10.1</ele>
        <time>2012-05-12T14:03:26Z</time>
      </trkpt>
      <trkpt lat="50.74392" lon="2.94086">
        <ele>-10.1</ele>
        <time>2012-05-12T14:03:37Z</time>
      </trkpt>
      <trkpt lat="50.74437" lon="2.94122">
        <ele>-10.1</ele>
        <time>2012-05-12T14:03:47Z</time>
      </trkpt>
      <trkpt lat="50.74479" lon="2.94156">
        <ele>-4.1</ele>
        <time>2012-05-12T14:03:59Z</time>
      </trkpt>
      <trkpt lat="50.74531" lon="2.94204">
        <ele>-0.1</ele>
        <time>2012-05-12T14:04:10Z</time>
      </trkpt>
      <trkpt lat="50.74569" lon="2.94243">
        <ele>-0.1</ele>
        <time>2012-05-12T14:04:27Z</time>
      </trkpt>
      <trkpt lat="50.74616" lon="2.94302">
        <ele>-0.1</ele>
        <time>2012-05-12T14:04:41Z</time>
      </trkpt>
      <trkpt lat="50.74652" lon="2.9435">
        <ele>-0.1</ele>
        <time>2012-05-12T14:04:55Z</time>
      </trkpt>
      <trkpt lat="50.74685" lon="2.944">
        <ele>-0.1</ele>
        <time>2012-05-12T14:05:05Z</time>
      </trkpt>
      <trkpt lat="50.74712" lon="2.94459">
        <ele>-0.1</ele>
        <time>2012-05-12T14:05:15Z</time>
      </trkpt>
      <trkpt lat="50.74737" lon="2.94519">
        <ele>-1.5</ele>
        <time>2012-05-12T14:05:22Z</time>
      </trkpt>
      <trkpt lat="50.74767" lon="2.94578">
        <ele>-4.5</ele>
        <time>2012-05-12T14:05:32Z</time>
      </trkpt>
      <trkpt lat="50.74811" lon="2.94659">
        <ele>-7.1</ele>
        <time>2012-05-12T14:05:39Z</time>
      </trkpt>
      <trkpt lat="50.74842" lon="2.94715">
        <ele>-11.1</ele>
        <time>2012-05-12T14:05:51Z</time>
      </trkpt>
      <trkpt lat="50.74879" lon="2.94801">
        <ele>-11.1</ele>
        <time>2012-05-12T14:06:00Z</time>
      </trkpt>
      <trkpt lat="50.74902" lon="2.94869">
        <ele>-11.1</ele>
        <time>2012-05-12T14:06:13Z</time>
      </trkpt>
      <trkpt lat="50.74919" lon="2.94938">
        <ele>-11.1</ele>
        <time>2012-05-12T14:06:22Z</time>
      </trkpt>
      <trkpt lat="50.74933" lon="2.95009">
        <ele>-11.1</ele>
        <time>2012-05-12T14:06:30Z</time>
      </trkpt>
      <trkpt lat="50.74949" lon="2.95111">
        <ele>-11.1</ele>
        <time>2012-05-12T14:06:40Z</time>
      </trkpt>
      <trkpt lat="50.74959" lon="2.95182">
        <ele>-11.1</ele>
        <time>2012-05-12T14:06:59Z</time>
      </trkpt>
      <trkpt lat="50.74955" lon="2.95193">
        <ele>-11.1</ele>
        <time>2012-05-12T14:07:02Z</time>
      </trkpt>
      <trkpt lat="50.7491" lon="2.95209">
        <ele>-11.1</ele>
        <time>2012-05-12T14:07:18Z</time>
      </trkpt>
      <trkpt lat="50.74865" lon="2.95232">
        <ele>0.9</ele>
        <time>2012-05-12T14:07:31Z</time>
      </trkpt>
      <trkpt lat="50.7486" lon="2.95259">
        <ele>0.9</ele>
        <time>2012-05-12T14:08:09Z</time>
      </trkpt>
      <trkpt lat="50.7486" lon="2.95259">
        <ele>13.9</ele>
        <time>2012-05-12T14:08:56Z</time>
      </trkpt>
      <trkpt lat="50.74887" lon="2.95265">
        <ele>13.9</ele>
        <time>2012-05-12T14:09:00Z</time>
      </trkpt>
      <trkpt lat="50.74937" lon="2.95255">
        <ele>13.9</ele>
        <time>2012-05-12T14:09:14Z</time>
      </trkpt>
      <trkpt lat="50.74963" lon="2.95239">
        <ele>13.9</ele>
        <time>2012-05-12T14:09:23Z</time>
      </trkpt>
      <trkpt lat="50.7501" lon="2.95203">
        <ele>13.9</ele>
        <time>2012-05-12T14:09:38Z</time>
      </trkpt>
      <trkpt lat="50.75055" lon="2.95172">
        <ele>13.9</ele>
        <time>2012-05-12T14:09:51Z</time>
      </trkpt>
      <trkpt lat="50.75097" lon="2.95133">
        <ele>19.5</ele>
        <time>2012-05-12T14:09:59Z</time>
      </trkpt>
      <trkpt lat="50.75133" lon="2.95089">
        <ele>23.9</ele>
        <time>2012-05-12T14:10:05Z</time>
      </trkpt>
      <trkpt lat="50.75169" lon="2.95041">
        <ele>23.9</ele>
        <time>2012-05-12T14:10:19Z</time>
      </trkpt>
      <trkpt lat="50.7518" lon="2.95028">
        <ele>23.9</ele>
        <time>2012-05-12T14:10:25Z</time>
      </trkpt>
      <trkpt lat="50.7518" lon="2.95028">
        <ele>16.9</ele>
        <time>2012-05-12T14:11:10Z</time>
      </trkpt>
      <trkpt lat="50.75204" lon="2.94972">
        <ele>16.9</ele>
        <time>2012-05-12T14:59:03Z</time>
      </trkpt>
      <trkpt lat="50.75204" lon="2.94972">
        <ele>16.9</ele>
        <time>2012-05-12T14:59:17Z</time>
      </trkpt>
    </trkseg>
  </trk>
</gpx>